Time;durP1;ratioP1;P1;durP2;ratioP2;P2;SDS_P1;SDS_P2;PMS_P1;PMS_P2;Temp;Humidity;BMP_temperature;BMP_pressure;BME280_temperature;BME280_humidity;BME280_pressure;Samples;Min_cycle;Max_cycle;Signal;HPM_P1;HPM_P2
2022/03/08 00:02:26;;;;;;;11.65;7.05;;;;;;;1.13;65.34;100265.61;1709665;81;21104;-69
2022/03/08 00:04:53;;;;;;;10.75;7.10;;;;;;;1.12;65.51;100257.42;1713583;81;21140;-68
2022/03/08 00:07:20;;;;;;;14.68;8.60;;;;;;;1.10;65.59;100257.31;1709498;82;21611;-69
2022/03/08 00:09:47;;;;;;;23.42;12.78;;;;;;;1.05;65.74;100261.84;1709740;83;21108;-67
2022/03/08 00:12:17;;;;;;;20.97;11.73;;;;;;;1.02;65.80;100260.13;1710607;83;21448;-70
2022/03/08 00:14:47;;;;;;;14.00;8.28;;;;;;;1.03;65.94;100256.51;1725292;81;21089;-69
2022/03/08 00:17:14;;;;;;;13.88;8.48;;;;;;;1.04;65.97;100251.03;1720872;81;21798;-68
2022/03/08 00:19:41;;;;;;;11.43;7.00;;;;;;;1.07;66.01;100250.63;1717063;81;21048;-69
2022/03/08 00:22:08;;;;;;;12.60;8.20;;;;;;;1.09;66.00;100256.52;1710959;83;21046;-69
2022/03/08 00:24:36;;;;;;;12.78;8.18;;;;;;;1.07;66.00;100248.00;1710065;83;21175;-69
2022/03/08 00:27:03;;;;;;;11.97;6.95;;;;;;;1.05;65.99;100244.75;1718788;81;21515;-69
2022/03/08 00:29:30;;;;;;;13.20;7.03;;;;;;;1.01;66.08;100245.37;1710285;82;21279;-69
2022/03/08 00:31:57;;;;;;;13.48;8.58;;;;;;;0.98;66.12;100249.20;1711111;83;21551;-69
2022/03/08 00:34:24;;;;;;;12.28;8.15;;;;;;;1.00;66.17;100251.14;1707089;83;20997;-69
2022/03/08 00:36:51;;;;;;;14.40;8.90;;;;;;;1.00;66.21;100253.77;1708290;81;21304;-69
2022/03/08 00:39:18;;;;;;;13.85;8.43;;;;;;;1.02;66.25;100249.12;1719902;83;21135;-69
2022/03/08 00:41:46;;;;;;;15.65;9.50;;;;;;;1.02;66.23;100245.19;1711146;81;21067;-69
2022/03/08 00:44:13;;;;;;;16.12;10.32;;;;;;;0.99;66.22;100243.44;1708363;83;21101;-69
2022/03/08 00:46:41;;;;;;;16.52;10.58;;;;;;;0.88;66.35;100245.66;1712984;83;21472;-69
2022/03/08 00:49:07;;;;;;;17.48;10.68;;;;;;;0.77;66.48;100255.45;1714146;83;21652;-68
2022/03/08 00:51:34;;;;;;;18.50;11.75;;;;;;;0.69;66.61;100245.95;1701755;82;21081;-68
2022/03/08 00:54:01;;;;;;;18.82;11.65;;;;;;;0.62;66.83;100242.48;1724947;83;21553;-69
2022/03/08 00:56:29;;;;;;;18.90;12.15;;;;;;;0.56;66.95;100240.67;1724539;81;21075;-69
2022/03/08 00:58:57;;;;;;;18.42;11.75;;;;;;;0.52;67.04;100240.73;1710274;83;21057;-69
2022/03/08 01:01:24;;;;;;;21.40;13.78;;;;;;;0.47;67.20;100243.17;1709884;81;21945;-68
2022/03/08 01:03:51;;;;;;;23.32;14.10;;;;;;;0.37;67.41;100245.37;1714071;82;21033;-68
2022/03/08 01:06:18;;;;;;;21.95;13.40;;;;;;;0.38;67.59;100246.47;1715432;81;21100;-68
2022/03/08 01:08:45;;;;;;;22.40;13.95;;;;;;;0.43;67.66;100247.21;1721534;81;21124;-69
2022/03/08 01:11:12;;;;;;;22.48;14.63;;;;;;;0.45;67.72;100242.55;1714542;82;21301;-69
2022/03/08 01:13:41;;;;;;;23.15;15.40;;;;;;;0.50;67.78;100236.72;1712500;81;21300;-68
2022/03/08 01:16:09;;;;;;;24.30;16.15;;;;;;;0.52;67.82;100241.25;1709593;82;21663;-67
2022/03/08 01:18:36;;;;;;;27.50;16.87;;;;;;;0.53;67.85;100242.86;1721400;81;21021;-68
2022/03/08 01:21:03;;;;;;;21.87;15.30;;;;;;;0.58;67.94;100244.40;1719559;81;21132;-68
2022/03/08 01:23:30;;;;;;;26.77;17.42;;;;;;;0.62;67.96;100242.48;1722962;82;21152;-68
2022/03/08 01:25:58;;;;;;;29.15;18.07;;;;;;;0.67;67.95;100240.58;1715971;81;21221;-69
2022/03/08 01:28:25;;;;;;;28.35;17.57;;;;;;;0.73;67.88;100240.30;1716087;81;21353;-69
2022/03/08 01:30:53;;;;;;;30.27;18.30;;;;;;;0.77;67.81;100238.88;1718221;81;21051;-69
2022/03/08 01:33:20;;;;;;;27.82;17.95;;;;;;;0.79;67.75;100232.90;1726408;81;21035;-69
2022/03/08 01:35:47;;;;;;;25.72;16.12;;;;;;;0.83;67.66;100234.95;1713560;83;21513;-69
2022/03/08 01:38:17;;;;;;;29.05;18.20;;;;;;;0.84;67.53;100235.23;1710163;83;21153;-68
2022/03/08 01:40:44;;;;;;;26.07;17.30;;;;;;;0.79;67.51;100227.64;1711899;82;21125;-68
2022/03/08 01:43:13;;;;;;;27.95;19.15;;;;;;;0.77;67.46;100222.59;1711859;81;21693;-69
2022/03/08 01:45:45;;;;;;;29.90;19.92;;;;;;;0.76;67.43;100229.36;1685232;83;22087;-68
2022/03/08 01:48:14;;;;;;;32.25;19.82;;;;;;;0.75;67.38;100232.50;1725209;81;21006;-68
2022/03/08 01:50:48;;;;;;;34.45;20.70;;;;;;;0.73;67.41;100231.09;1714742;81;22288;-69
2022/03/08 01:53:20;;;;;;;30.80;21.30;;;;;;;0.73;67.45;100227.16;1738672;81;21046;-68
2022/03/08 01:55:51;;;;;;;27.98;18.05;;;;;;;0.72;67.46;100230.27;1722903;83;21010;-68
2022/03/08 01:58:22;;;;;;;34.80;22.47;;;;;;;0.73;67.49;100221.90;1717986;81;21025;-69
2022/03/08 02:00:49;;;;;;;32.95;21.23;;;;;;;0.72;67.47;100219.75;1726936;81;21002;-69
2022/03/08 02:03:20;;;;;;;37.70;24.43;;;;;;;0.67;67.47;100224.30;1720529;81;21309;-67
2022/03/08 02:05:55;;;;;;;32.70;23.57;;;;;;;0.62;67.55;100225.39;1719371;82;20951;-69
2022/03/08 02:08:23;;;;;;;38.85;24.57;;;;;;;0.63;67.63;100227.03;1721846;81;21144;-70
2022/03/08 02:10:52;;;;;;;37.25;25.40;;;;;;;0.63;67.66;100223.09;1715247;81;21085;-67
2022/03/08 02:13:21;;;;;;;35.92;25.17;;;;;;;0.63;67.74;100221.78;1720758;81;21060;-68
2022/03/08 02:15:49;;;;;;;39.45;24.95;;;;;;;0.66;67.69;100227.95;1736365;81;22197;-68
2022/03/08 02:18:17;;;;;;;39.92;28.15;;;;;;;0.67;67.73;100226.93;1702707;81;21107;-69
2022/03/08 02:20:44;;;;;;;43.48;27.45;;;;;;;0.66;67.70;100225.83;1722885;81;21077;-69
2022/03/08 02:23:12;;;;;;;43.73;27.62;;;;;;;0.62;67.75;100221.96;1721256;81;21043;-69
2022/03/08 02:25:39;;;;;;;41.55;28.85;;;;;;;0.59;67.79;100227.61;1722788;81;21504;-68
2022/03/08 02:28:06;;;;;;;37.15;25.08;;;;;;;0.55;67.84;100234.28;1716759;81;21544;-68
2022/03/08 02:30:35;;;;;;;40.60;28.73;;;;;;;0.55;68.00;100229.03;1719519;82;21044;-69
2022/03/08 02:33:02;;;;;;;44.20;29.10;;;;;;;0.54;68.07;100224.79;1689625;82;21606;-68
2022/03/08 02:35:30;;;;;;;43.60;29.18;;;;;;;0.57;68.13;100231.77;1693870;82;21129;-67
2022/03/08 02:38:02;;;;;;;47.08;29.48;;;;;;;0.57;68.20;100233.59;1693140;82;21130;-69
2022/03/08 02:40:33;;;;;;;46.40;30.75;;;;;;;0.61;68.26;100230.86;1693517;82;21131;-67
2022/03/08 02:43:04;;;;;;;48.85;31.00;;;;;;;0.67;68.28;100234.81;1705016;84;21054;-69
2022/03/08 02:45:36;;;;;;;48.73;30.48;;;;;;;0.76;68.24;100238.55;1705664;84;21562;-70
2022/03/08 02:48:07;;;;;;;47.10;30.25;;;;;;;0.78;68.21;100232.60;1694202;83;20994;-68
2022/03/08 02:50:40;;;;;;;45.10;31.35;;;;;;;0.85;68.20;100238.16;1704161;83;21575;-67
2022/03/08 02:53:10;;;;;;;49.40;31.68;;;;;;;0.89;68.07;100234.66;1704038;82;21555;-70
2022/03/08 02:55:42;;;;;;;48.28;32.65;;;;;;;0.91;68.14;100232.11;1701575;82;21101;-68
2022/03/08 02:58:12;;;;;;;53.52;33.10;;;;;;;0.93;68.05;100234.04;1698959;82;21039;-68
2022/03/08 03:00:43;;;;;;;51.90;32.70;;;;;;;0.91;68.06;100232.62;1702490;82;21046;-70
2022/03/08 03:03:12;;;;;;;49.77;33.45;;;;;;;0.87;68.09;100240.09;1696986;82;21078;-69
2022/03/08 03:05:43;;;;;;;51.08;33.05;;;;;;;0.85;68.18;100236.84;1734228;82;21354;-68
2022/03/08 03:08:16;;;;;;;52.05;33.65;;;;;;;0.88;68.29;100235.64;1705614;82;20972;-69
2022/03/08 03:10:47;;;;;;;53.68;34.55;;;;;;;0.93;68.39;100239.30;1703242;82;21071;-67
2022/03/08 03:13:16;;;;;;;46.68;31.97;;;;;;;1.01;68.46;100240.91;1695289;82;21066;-68
2022/03/08 03:15:46;;;;;;;51.65;34.35;;;;;;;1.03;68.55;100233.64;1699077;82;20964;-68
2022/03/08 03:18:22;;;;;;;50.58;34.98;;;;;;;1.01;68.67;100238.28;1701979;82;21063;-68
2022/03/08 03:20:54;;;;;;;51.13;35.58;;;;;;;0.96;68.86;100236.78;1699408;83;21897;-69
2022/03/08 03:23:25;;;;;;;46.48;33.40;;;;;;;1.01;69.02;100234.84;1702370;82;21097;-67
2022/03/08 03:25:54;;;;;;;52.45;35.20;;;;;;;1.05;69.09;100231.59;1702347;82;21074;-69
2022/03/08 03:28:21;;;;;;;49.60;33.58;;;;;;;1.08;69.17;100225.94;1701000;82;21568;-70
2022/03/08 03:30:52;;;;;;;52.33;35.43;;;;;;;1.10;69.21;100228.38;1701775;82;21685;-70
2022/03/08 03:33:26;;;;;;;;;;;;;;;1.16;69.24;100232.33;1698612;82;21055;-70
2022/03/08 03:36:01;;;;;;;45.70;31.02;;;;;;;1.20;69.24;100226.15;1700038;82;20209;-69
2022/03/08 03:38:27;;;;;;;;;;;;;;;1.17;69.15;100238.39;1707271;82;21549;-68
2022/03/08 03:40:56;;;;;;;49.42;32.25;;;;;;;1.13;69.26;100234.55;1694487;82;20206;-70
2022/03/08 03:43:23;;;;;;;48.10;32.17;;;;;;;1.11;69.25;100231.30;1693466;82;21664;-69
2022/03/08 03:45:50;;;;;;;42.93;31.33;;;;;;;1.10;69.31;100236.27;1696732;82;21097;-70
2022/03/08 03:48:17;;;;;;;46.60;32.40;;;;;;;1.11;69.34;100226.05;1694635;82;21079;-67
2022/03/08 03:50:45;;;;;;;50.38;34.33;;;;;;;1.09;69.36;100226.27;1689920;82;21091;-68
2022/03/08 03:53:12;;;;;;;50.12;32.78;;;;;;;1.09;69.46;100224.14;1694187;82;21091;-68
2022/03/08 03:55:39;;;;;;;43.17;29.65;;;;;;;1.13;69.53;100223.52;1693078;82;21121;-68
2022/03/08 03:58:06;;;;;;;38.40;27.55;;;;;;;1.17;69.54;100222.09;1691451;82;21412;-68
2022/03/08 04:00:34;;;;;;;43.38;28.65;;;;;;;1.19;69.50;100217.96;1694696;82;21083;-68
2022/03/08 04:03:01;;;;;;;42.75;28.98;;;;;;;1.16;69.55;100220.48;1689012;82;21648;-68
2022/03/08 04:05:29;;;;;;;43.02;29.07;;;;;;;1.10;69.58;100216.55;1698392;82;21584;-69
2022/03/08 04:07:56;;;;;;;39.45;26.85;;;;;;;1.03;69.73;100217.86;1686487;83;21264;-69
2022/03/08 04:10:24;;;;;;;42.27;28.70;;;;;;;1.01;69.87;100215.93;1692822;82;21578;-68
2022/03/08 04:12:51;;;;;;;42.33;28.85;;;;;;;0.97;70.02;100221.30;1696630;82;21015;-69
2022/03/08 04:15:18;;;;;;;41.80;26.27;;;;;;;0.95;70.17;100223.30;1689862;83;21177;-68
2022/03/08 04:17:47;;;;;;;38.20;25.95;;;;;;;0.97;70.40;100230.50;1693365;82;21023;-69
2022/03/08 04:20:14;;;;;;;37.50;25.25;;;;;;;1.00;70.48;100235.36;1695192;82;21641;-69
2022/03/08 04:22:42;;;;;;;41.05;26.55;;;;;;;1.03;70.59;100228.89;1694700;82;21503;-69
2022/03/08 04:25:12;;;;;;;43.38;26.12;;;;;;;1.15;70.43;100224.62;1686678;82;21193;-69
2022/03/08 04:27:40;;;;;;;45.08;29.82;;;;;;;1.18;70.40;100224.22;1691823;82;21074;-69
2022/03/08 04:30:09;;;;;;;39.30;26.15;;;;;;;1.13;70.43;100219.58;1696804;82;21067;-68
2022/03/08 04:32:37;;;;;;;37.90;25.62;;;;;;;1.06;70.57;100211.39;1684566;83;21153;-68
2022/03/08 04:35:05;;;;;;;40.60;25.72;;;;;;;1.00;70.75;100216.14;1698174;82;21102;-69
2022/03/08 04:37:32;;;;;;;44.95;27.10;;;;;;;0.74;71.38;100226.14;1699796;84;21142;-70
2022/03/08 04:39:59;;;;;;;45.30;28.77;;;;;;;0.73;71.81;100221.39;1697311;84;21066;-69
2022/03/08 04:42:29;;;;;;;41.73;27.35;;;;;;;0.73;72.00;100229.27;1684731;84;21084;-69
2022/03/08 04:44:56;;;;;;;41.58;26.77;;;;;;;0.86;72.15;100225.86;1689514;84;22278;-69
2022/03/08 04:47:23;;;;;;;39.60;24.75;;;;;;;0.90;72.17;100227.87;1720710;83;21071;-68
2022/03/08 04:49:51;;;;;;;34.27;21.42;;;;;;;0.97;72.26;100236.27;1698043;84;21031;-69
2022/03/08 04:52:19;;;;;;;33.92;22.75;;;;;;;1.03;72.23;100231.52;1720168;83;21130;-69
2022/03/08 04:54:46;;;;;;;36.08;23.65;;;;;;;1.09;72.21;100229.41;1698250;83;21114;-69
2022/03/08 04:57:13;;;;;;;33.20;21.40;;;;;;;1.15;72.14;100229.88;1696436;84;21915;-69
2022/03/08 04:59:43;;;;;;;30.85;20.08;;;;;;;1.23;72.13;100228.89;1694345;82;21105;-69
2022/03/08 05:02:12;;;;;;;26.73;16.10;;;;;;;1.31;71.99;100233.92;1695649;84;21111;-69
2022/03/08 05:04:39;;;;;;;11.03;7.30;;;;;;;1.35;71.78;100234.65;1686231;84;21601;-69
2022/03/08 05:07:07;;;;;;;9.90;6.42;;;;;;;1.37;71.30;100229.16;1704611;84;21077;-70
2022/03/08 05:09:34;;;;;;;7.30;4.83;;;;;;;1.34;71.03;100229.57;1689567;84;21321;-69
2022/03/08 05:12:02;;;;;;;5.90;3.60;;;;;;;1.34;70.81;100230.89;1675934;85;21128;-69
2022/03/08 05:14:29;;;;;;;5.95;3.60;;;;;;;1.29;70.44;100236.77;1706727;82;21098;-67
2022/03/08 05:16:58;;;;;;;7.67;3.70;;;;;;;1.30;69.98;100235.75;1733701;82;21034;-69
2022/03/08 05:19:25;;;;;;;7.00;3.83;;;;;;;1.30;69.67;100241.52;1734328;82;21581;-69
2022/03/08 05:21:53;;;;;;;6.40;3.58;;;;;;;1.29;69.58;100242.55;1733860;82;21524;-69
2022/03/08 05:24:20;;;;;;;7.08;3.95;;;;;;;1.32;69.48;100243.45;1719387;82;21098;-70
2022/03/08 05:26:47;;;;;;;4.90;3.20;;;;;;;1.32;69.22;100243.45;1684295;84;20990;-69
2022/03/08 05:29:13;;;;;;;5.12;3.27;;;;;;;1.31;69.01;100244.45;1697631;82;21122;-70
2022/03/08 05:31:40;;;;;;;5.78;3.10;;;;;;;1.34;69.01;100247.98;1695776;82;21090;-68
2022/03/08 05:34:07;;;;;;;5.80;3.40;;;;;;;1.36;68.68;100251.23;1703018;84;21207;-69
2022/03/08 05:36:34;;;;;;;6.17;3.40;;;;;;;1.36;68.54;100251.23;1689742;82;21074;-69
2022/03/08 05:39:02;;;;;;;6.95;3.90;;;;;;;1.34;68.37;100249.30;1690788;84;21640;-68
2022/03/08 05:41:29;;;;;;;5.83;4.00;;;;;;;1.33;68.30;100254.27;1700269;82;21137;-68
2022/03/08 05:43:56;;;;;;;14.05;8.35;;;;;;;1.32;68.27;100251.35;1724376;81;21133;-69
2022/03/08 05:46:23;;;;;;;11.33;7.50;;;;;;;1.37;68.28;100255.48;1712181;81;21505;-68
2022/03/08 05:48:50;;;;;;;11.60;6.83;;;;;;;1.43;68.26;100260.44;1710284;82;21041;-68
2022/03/08 05:51:17;;;;;;;8.73;5.60;;;;;;;1.49;68.29;100257.00;1720071;81;21129;-67
2022/03/08 05:53:46;;;;;;;8.25;5.28;;;;;;;1.57;68.27;100254.94;1715191;82;21065;-68
2022/03/08 05:56:14;;;;;;;8.68;5.78;;;;;;;1.67;68.05;100257.16;1715049;81;21132;-69
2022/03/08 05:58:42;;;;;;;10.70;5.70;;;;;;;1.73;67.92;100255.53;1713644;81;21245;-70
2022/03/08 06:01:09;;;;;;;8.35;5.30;;;;;;;1.79;67.80;100253.39;1714016;81;21139;-69
2022/03/08 06:03:38;;;;;;;7.47;5.00;;;;;;;1.89;67.69;100256.41;1714102;82;21043;-69
2022/03/08 06:06:05;;;;;;;8.78;5.08;;;;;;;1.99;67.49;100261.23;1715229;81;21213;-69
2022/03/08 06:08:33;;;;;;;7.87;5.45;;;;;;;2.06;67.29;100256.23;1711317;82;21525;-70
2022/03/08 06:11:01;;;;;;;8.98;6.08;;;;;;;2.17;67.12;100266.63;1713198;81;21143;-70
2022/03/08 06:13:29;;;;;;;8.95;6.20;;;;;;;2.24;66.89;100259.53;1713203;82;21030;-69
2022/03/08 06:15:56;;;;;;;7.75;5.10;;;;;;;2.34;66.78;100263.03;1721421;81;21114;-69
2022/03/08 06:18:23;;;;;;;9.03;6.22;;;;;;;2.45;66.51;100263.68;1727663;83;21046;-69
2022/03/08 06:20:50;;;;;;;9.05;5.70;;;;;;;2.54;66.22;100265.57;1726045;83;21063;-69
2022/03/08 06:23:17;;;;;;;7.65;5.50;;;;;;;2.61;66.03;100263.70;1727474;83;21788;-69
2022/03/08 06:25:44;;;;;;;7.95;5.62;;;;;;;2.66;65.87;100265.17;1716316;81;21011;-68
2022/03/08 06:28:11;;;;;;;8.40;5.00;;;;;;;2.71;65.74;100265.36;1743050;81;21586;-69
2022/03/08 06:30:40;;;;;;;6.70;4.90;;;;;;;2.74;65.62;100270.22;1712474;83;21050;-69
2022/03/08 06:33:07;;;;;;;6.55;4.60;;;;;;;2.75;65.52;100263.91;1719104;81;21066;-69
2022/03/08 06:35:36;;;;;;;7.00;4.25;;;;;;;2.69;65.36;100271.86;1714799;81;21647;-69
2022/03/08 06:38:03;;;;;;;6.55;4.00;;;;;;;2.62;65.43;100273.22;1713138;81;21788;-69
2022/03/08 06:40:32;;;;;;;6.78;4.05;;;;;;;2.55;65.41;100268.50;1686854;83;21014;-69
2022/03/08 06:42:59;;;;;;;6.22;3.72;;;;;;;2.48;65.52;100271.16;1718557;81;21038;-68
2022/03/08 06:45:27;;;;;;;5.83;4.30;;;;;;;2.46;65.61;100273.19;1715763;81;21072;-69
2022/03/08 06:47:53;;;;;;;7.20;4.70;;;;;;;2.44;65.76;100267.34;1723597;81;21202;-69
2022/03/08 06:50:21;;;;;;;7.12;4.55;;;;;;;2.52;65.89;100268.91;1696004;83;21045;-69
2022/03/08 06:52:50;;;;;;;7.33;4.40;;;;;;;2.62;65.98;100272.41;1710267;83;21163;-68
2022/03/08 06:55:17;;;;;;;7.08;5.00;;;;;;;2.62;66.08;100269.27;1711875;81;21067;-69
2022/03/08 06:57:44;;;;;;;7.58;4.80;;;;;;;2.66;66.07;100268.33;1715185;82;21148;-70
2022/03/08 07:00:13;;;;;;;7.40;4.70;;;;;;;2.61;66.24;100277.40;1717516;81;21568;-68
2022/03/08 07:02:40;;;;;;;9.38;5.75;;;;;;;2.52;66.55;100274.99;1704951;82;21075;-70
2022/03/08 07:05:09;;;;;;;7.87;5.03;;;;;;;2.45;66.95;100275.54;1699327;82;21101;-69
2022/03/08 07:07:38;;;;;;;6.97;4.80;;;;;;;2.40;67.45;100274.55;1689348;82;21059;-67
2022/03/08 07:10:07;;;;;;;7.50;5.20;;;;;;;2.36;67.92;100278.11;1693505;82;21159;-70
2022/03/08 07:12:34;;;;;;;7.50;5.22;;;;;;;2.35;68.38;100275.98;1693737;82;21318;-69
2022/03/08 07:15:06;;;;;;;8.65;5.90;;;;;;;2.43;68.87;100267.02;1688601;82;21603;-67
2022/03/08 07:17:34;;;;;;;7.92;5.67;;;;;;;2.61;69.28;100258.94;1691717;82;21043;-69
2022/03/08 07:20:03;;;;;;;10.53;6.58;;;;;;;2.88;69.48;100265.66;1696180;82;21136;-69
2022/03/08 07:22:32;;;;;;;8.05;5.58;;;;;;;3.20;69.63;100265.13;1694850;83;21076;-69
2022/03/08 07:24:59;;;;;;;9.98;7.58;;;;;;;3.57;69.31;100261.76;1719892;82;21215;-69
2022/03/08 07:27:26;;;;;;;9.55;7.17;;;;;;;3.79;68.70;100266.12;1709331;83;21060;-70
2022/03/08 07:29:53;;;;;;;9.00;7.28;;;;;;;3.94;67.95;100259.42;1696256;83;21085;-69
2022/03/08 07:32:21;;;;;;;9.95;7.45;;;;;;;4.07;67.30;100258.98;1699291;83;21575;-69
2022/03/08 07:34:49;;;;;;;9.45;6.95;;;;;;;4.17;66.85;100247.37;1697956;82;21033;-69
2022/03/08 07:37:16;;;;;;;9.23;6.60;;;;;;;4.29;66.51;100250.89;1713643;83;21534;-70
2022/03/08 07:39:45;;;;;;;8.00;6.03;;;;;;;4.43;66.13;100249.69;1706778;82;21059;-68
2022/03/08 07:42:12;;;;;;;5.80;4.00;;;;;;;4.41;65.56;100256.25;1713368;83;21111;-69
2022/03/08 07:44:42;;;;;;;5.40;3.02;;;;;;;4.23;64.37;100254.42;1726569;82;21009;-70
2022/03/08 07:47:27;;;;;;;3.83;2.12;;;;;;;3.89;63.99;100271.19;1703616;83;21091;-70
2022/03/08 07:50:12;;;;;;;3.75;1.40;;;;;;;3.67;63.98;100260.74;1723832;82;21529;-70
2022/03/08 07:52:59;;;;;;;2.52;1.47;;;;;;;3.60;63.94;100255.53;1711833;83;21065;-69
2022/03/08 07:55:44;;;;;;;3.30;1.87;;;;;;;3.58;64.02;100256.77;1701793;83;21063;-69
2022/03/08 07:58:30;;;;;;;3.90;2.30;;;;;;;3.56;64.18;100260.95;1717847;83;21667;-71
2022/03/08 08:01:15;;;;;;;3.33;2.08;;;;;;;3.59;64.37;100260.52;1716133;81;21119;-69
2022/03/08 08:04:00;;;;;;;4.00;2.42;;;;;;;3.75;64.05;100256.48;1700786;82;21300;-69
2022/03/08 08:06:45;;;;;;;3.92;2.58;;;;;;;3.71;64.14;100254.80;1679229;84;21036;-69
2022/03/08 08:09:30;;;;;;;4.40;2.90;;;;;;;3.72;64.53;100252.98;1704475;83;21131;-70
2022/03/08 08:12:15;;;;;;;5.33;3.47;;;;;;;3.79;64.81;100252.91;1714903;83;21142;-70
2022/03/08 08:15:01;;;;;;;4.40;3.27;;;;;;;3.86;64.87;100257.09;1683653;84;21571;-69
2022/03/08 08:17:46;;;;;;;5.53;3.17;;;;;;;3.87;64.73;100257.37;1716081;81;21065;-69
2022/03/08 08:20:32;;;;;;;4.53;2.40;;;;;;;3.73;64.34;100253.27;1720913;81;21131;-70
2022/03/08 08:23:17;;;;;;;5.17;2.30;;;;;;;3.53;64.34;100270.63;1686620;84;21135;-68
2022/03/08 08:26:02;;;;;;;3.70;2.50;;;;;;;3.29;64.68;100260.36;1722450;82;21107;-70
2022/03/08 08:28:48;;;;;;;5.30;3.00;;;;;;;3.03;65.31;100261.41;1714979;81;21629;-69
2022/03/08 08:31:33;;;;;;;4.90;3.10;;;;;;;2.84;66.18;100263.16;1716290;81;21075;-69
2022/03/08 08:34:19;;;;;;;5.25;2.80;;;;;;;2.72;66.75;100266.16;1676292;84;21110;-69
2022/03/08 08:37:04;;;;;;;4.33;2.40;;;;;;;2.72;67.30;100259.58;1727495;82;21065;-70
2022/03/08 08:39:49;;;;;;;4.10;2.00;;;;;;;2.84;67.57;100253.92;1716354;81;21134;-69
2022/03/08 08:42:34;;;;;;;3.12;1.70;;;;;;;2.95;67.36;100256.38;1715578;82;21108;-70
2022/03/08 08:45:19;;;;;;;3.30;1.92;;;;;;;3.01;67.07;100256.84;1722521;81;21049;-69
2022/03/08 08:48:06;;;;;;;3.00;1.72;;;;;;;3.11;67.08;100253.21;1716378;81;21048;-69
2022/03/08 08:50:53;;;;;;;3.40;1.90;;;;;;;3.26;66.77;100256.86;1712413;83;43263;-69
2022/03/08 08:53:38;;;;;;;4.00;2.20;;;;;;;3.37;66.63;100250.87;1723437;81;21067;-69
2022/03/08 08:56:23;;;;;;;5.03;2.80;;;;;;;3.52;66.21;100251.83;1689091;82;21066;-70
2022/03/08 08:59:08;;;;;;;6.22;4.03;;;;;;;3.69;66.02;100249.45;1692309;83;21133;-69
2022/03/08 09:01:53;;;;;;;6.42;4.17;;;;;;;3.88;65.28;100251.57;1698561;82;21102;-68
2022/03/08 09:04:38;;;;;;;5.70;3.15;;;;;;;3.96;64.56;100257.91;1689759;83;21080;-69
2022/03/08 09:07:24;;;;;;;3.98;2.70;;;;;;;4.10;63.96;100253.27;1692303;82;21697;-68
2022/03/08 09:10:09;;;;;;;5.72;2.92;;;;;;;4.31;63.44;100248.02;1684308;83;21116;-69
2022/03/08 09:12:56;;;;;;;3.58;2.27;;;;;;;4.56;62.52;100250.02;1706942;82;21571;-69
2022/03/08 09:15:41;;;;;;;3.70;2.60;;;;;;;4.63;61.94;100248.61;1708839;82;21538;-69
2022/03/08 09:18:26;;;;;;;4.15;2.70;;;;;;;4.53;60.65;100252.31;1718257;82;21065;-69
2022/03/08 09:21:12;;;;;;;4.12;2.65;;;;;;;4.31;60.74;100250.17;1691656;83;21595;-68
2022/03/08 09:23:56;;;;;;;3.80;2.40;;;;;;;4.15;60.36;100248.94;1692358;83;21122;-68
2022/03/08 09:26:42;;;;;;;3.72;2.25;;;;;;;4.03;60.32;100261.79;1694524;83;21067;-69
2022/03/08 09:29:29;;;;;;;3.00;1.80;;;;;;;3.93;60.22;100260.46;1691248;83;21866;-69
2022/03/08 09:32:14;;;;;;;2.95;1.70;;;;;;;3.85;60.45;100256.80;1697158;83;21134;-69
2022/03/08 09:35:01;;;;;;;3.17;2.10;;;;;;;3.80;61.31;100251.36;1694630;82;21110;-68
2022/03/08 09:37:47;;;;;;;3.05;2.00;;;;;;;3.85;62.10;100260.77;1695798;82;21081;-67
2022/03/08 09:40:33;;;;;;;3.58;2.00;;;;;;;3.94;62.45;100263.39;1695305;82;21573;-68
2022/03/08 09:43:18;;;;;;;4.00;2.00;;;;;;;4.10;62.45;100255.91;1692434;82;21110;-69
2022/03/08 09:46:07;;;;;;;6.22;2.52;;;;;;;4.33;62.16;100250.73;1710502;82;21097;-69
2022/03/08 09:48:52;;;;;;;3.67;2.40;;;;;;;4.44;61.47;100272.48;1716902;81;21397;-69
2022/03/08 09:51:38;;;;;;;4.55;2.47;;;;;;;4.38;61.36;100265.95;1715218;82;21053;-68
2022/03/08 09:54:22;;;;;;;4.92;2.90;;;;;;;4.13;61.55;100269.48;1720995;81;21300;-68
2022/03/08 09:57:11;;;;;;;4.75;2.65;;;;;;;3.87;61.89;100275.88;1716941;82;21654;-69
2022/03/08 09:59:58;;;;;;;4.70;2.75;;;;;;;3.73;62.35;100283.12;1715463;82;21170;-68
2022/03/08 10:02:54;;;;;;;5.53;3.15;;;;;;;3.66;62.76;100272.34;1713916;82;21131;-69
2022/03/08 10:05:43;;;;;;;4.62;3.15;;;;;;;3.61;62.84;100274.81;1713055;82;21139;-69
2022/03/08 10:08:28;;;;;;;5.10;3.47;;;;;;;3.52;62.88;100271.15;1718060;82;21741;-68
2022/03/08 10:11:14;;;;;;;5.15;3.40;;;;;;;3.48;62.79;100271.27;1710156;81;21152;-69
2022/03/08 10:14:02;;;;;;;5.20;2.75;;;;;;;3.44;62.95;100278.02;1712476;83;21081;-69
2022/03/08 10:16:49;;;;;;;4.72;2.60;;;;;;;3.38;63.31;100273.59;1714863;81;21083;-69
2022/03/08 10:19:46;;;;;;;4.50;2.50;;;;;;;3.31;63.35;100275.48;1712505;82;21042;-68
2022/03/08 10:22:34;;;;;;;3.75;2.42;;;;;;;3.31;63.68;100276.80;1715883;81;21213;-69
2022/03/08 10:25:22;;;;;;;4.15;2.30;;;;;;;3.31;63.64;100272.84;1715823;82;21118;-69
2022/03/08 10:28:07;;;;;;;4.08;2.35;;;;;;;3.29;63.34;100271.75;1719850;81;21068;-69
2022/03/08 10:30:48;;;;;;;4.70;2.60;;;;;;;3.19;63.22;100271.92;1710215;82;21053;-69
2022/03/08 10:33:19;;;;;;;6.83;3.67;;;;;;;3.10;63.41;100277.19;1727214;81;21109;-69
2022/03/08 10:35:44;;;;;;;5.53;3.40;;;;;;;3.08;63.54;100272.62;1692007;81;21548;-67
2022/03/08 10:38:14;;;;;;;5.37;3.20;;;;;;;3.08;63.69;100271.30;1724396;81;21056;-70
2022/03/08 10:40:42;;;;;;;5.20;3.15;;;;;;;3.08;63.88;100265.52;1727217;83;21016;-72
2022/03/08 10:43:14;;;;;;;5.55;2.85;;;;;;;3.15;63.95;100270.74;1718049;82;21588;-70
2022/03/08 10:45:49;;;;;;;4.72;3.08;;;;;;;3.24;63.68;100268.94;1719169;82;21037;-71
2022/03/08 10:48:18;;;;;;;5.15;2.65;;;;;;;3.34;63.54;100268.97;1721866;81;21261;-71
2022/03/08 10:50:51;;;;;;;4.75;3.10;;;;;;;3.40;62.59;100266.79;1722487;81;21002;-70
2022/03/08 10:53:16;;;;;;;5.17;3.08;;;;;;;3.39;62.03;100271.27;1716009;81;21754;-71
2022/03/08 10:55:47;;;;;;;6.20;3.50;;;;;;;3.41;62.02;100273.67;1598133;81;10000704;-70
2022/03/08 10:58:15;;;;;;;8.97;4.70;;;;;;;3.50;61.85;100273.70;1571659;82;9999926;-76
2022/03/08 11:00:44;;;;;;;7.73;3.73;;;;;;;3.66;61.35;100274.47;1698592;81;21088;-76
2022/03/08 11:03:16;;;;;;;3.47;2.12;;;;;;;3.90;61.03;100277.27;1696446;82;21666;-72
2022/03/08 11:05:46;;;;;;;3.75;1.90;;;;;;;4.04;60.50;100289.30;1698139;82;21138;-74
2022/03/08 11:08:15;;;;;;;2.95;1.65;;;;;;;3.89;60.42;100295.48;1694468;83;21275;-74
2022/03/08 11:10:42;;;;;;;2.12;1.25;;;;;;;3.49;61.11;100295.34;1657770;84;21093;-75
2022/03/08 11:13:10;;;;;;;2.77;1.52;;;;;;;3.12;61.78;100293.59;1658999;82;21568;-71
2022/03/08 11:15:39;;;;;;;2.70;1.57;;;;;;;2.85;62.29;100279.27;1672273;85;21159;-69
2022/03/08 11:18:08;;;;;;;2.65;1.60;;;;;;;2.76;62.74;100289.28;1691438;83;21079;-69
2022/03/08 11:20:39;;;;;;;2.30;1.52;;;;;;;2.78;63.09;100283.78;1672051;85;21050;-70
2022/03/08 11:23:06;;;;;;;3.90;1.75;;;;;;;2.88;63.23;100285.44;1686811;81;21067;-69
2022/03/08 11:25:41;;;;;;;2.10;1.47;;;;;;;3.01;63.23;100284.03;1703507;83;21051;-70
2022/03/08 11:28:09;;;;;;;3.52;1.75;;;;;;;3.16;63.03;100290.82;1675022;83;21115;-70
2022/03/08 11:30:47;;;;;;;3.85;1.90;;;;;;;3.30;62.80;100291.03;1694631;82;21726;-70
2022/03/08 11:33:26;;;;;;;4.33;2.47;;;;;;;3.40;62.21;100282.11;1697979;84;21193;-70
2022/03/08 11:36:06;;;;;;;5.45;2.70;;;;;;;3.53;61.54;100275.91;1697583;84;21072;-71
2022/03/08 11:38:35;;;;;;;4.97;2.80;;;;;;;3.69;61.06;100271.91;1711448;82;21153;-71
2022/03/08 11:41:02;;;;;;;5.67;2.80;;;;;;;3.89;60.85;100273.83;1704859;82;21031;-71
2022/03/08 11:43:44;;;;;;;3.37;2.00;;;;;;;4.09;60.90;100270.16;1700599;84;21253;-71
2022/03/08 11:46:21;;;;;;;3.52;2.35;;;;;;;4.28;60.62;100267.80;1682534;84;21143;-71
2022/03/08 11:48:57;;;;;;;4.20;2.40;;;;;;;4.35;60.09;100264.55;1702496;84;21740;-70
2022/03/08 11:51:27;;;;;;;5.08;2.90;;;;;;;4.42;59.37;100263.95;1693591;82;21594;-71